Time;durP1;ratioP1;P1;durP2;ratioP2;P2;SDS_P1;SDS_P2;PMS_P1;PMS_P2;Temp;Humidity;BMP_temperature;BMP_pressure;BME280_temperature;BME280_humidity;BME280_pressure;Samples;Min_cycle;Max_cycle;Signal;HPM_P1;HPM_P2
2021/05/07 00:01:12;;;;;;;29.55;7.87;;;;;;;13.40;100.00;100656.64;1576614;91;21168;-81
2021/05/07 00:03:39;;;;;;;14.68;7.40;;;;;;;13.40;100.00;100662.06;1574656;91;21240;-81
2021/05/07 00:06:07;;;;;;;15.65;7.50;;;;;;;13.39;100.00;100670.73;1586996;89;21215;-81
2021/05/07 00:08:41;;;;;;;17.02;7.65;;;;;;;13.36;100.00;100676.70;1578131;90;21162;-81
2021/05/07 00:11:10;;;;;;;;;;;;;;;13.36;100.00;100692.13;1580611;90;21246;-81
2021/05/07 00:13:37;;;;;;;18.62;8.35;;;;;;;13.33;100.00;100696.74;1572818;90;20526;-81
2021/05/07 00:16:03;;;;;;;15.65;7.92;;;;;;;13.16;100.00;100699.17;1572088;91;22615;-81
2021/05/07 00:18:30;;;;;;;16.12;8.35;;;;;;;13.14;100.00;100712.16;1572189;91;21239;-81
2021/05/07 00:20:57;;;;;;;17.82;7.55;;;;;;;13.19;100.00;100725.69;1572158;90;21643;-81
2021/05/07 00:23:23;;;;;;;17.05;8.18;;;;;;;13.21;100.00;100717.31;1572123;91;21175;-82
2021/05/07 00:25:51;;;;;;;18.82;8.53;;;;;;;13.21;100.00;100708.36;1571952;91;21259;-82
2021/05/07 00:28:20;;;;;;;17.42;8.05;;;;;;;13.14;100.00;100714.06;1572098;91;21266;-81
2021/05/07 00:30:47;;;;;;;17.23;7.85;;;;;;;12.87;100.00;100719.24;1572061;91;21181;-81
2021/05/07 00:33:13;;;;;;;20.27;8.23;;;;;;;12.99;100.00;100727.08;1572218;91;21178;-81
2021/05/07 00:35:40;;;;;;;17.07;8.15;;;;;;;12.96;100.00;100731.13;1572064;91;22434;-81
2021/05/07 00:38:06;;;;;;;15.05;8.13;;;;;;;12.88;100.00;100738.47;1572102;91;21249;-81
2021/05/07 00:40:34;;;;;;;15.20;7.42;;;;;;;12.85;100.00;100741.72;1572246;91;21191;-81
2021/05/07 00:43:00;;;;;;;13.65;7.33;;;;;;;12.70;100.00;100737.63;1572272;91;21135;-81
2021/05/07 00:45:27;;;;;;;20.15;8.15;;;;;;;12.62;100.00;100740.36;1572137;91;21136;-81
2021/05/07 00:48:04;;;;;;;16.12;8.05;;;;;;;12.50;100.00;100743.87;1575080;90;21919;-81
2021/05/07 00:50:33;;;;;;;16.97;8.28;;;;;;;12.50;100.00;100740.62;1579079;90;21242;-81
2021/05/07 00:53:00;;;;;;;18.48;8.18;;;;;;;12.43;100.00;100745.45;1559034;90;21653;-81
2021/05/07 00:55:28;;;;;;;16.40;8.50;;;;;;;12.28;100.00;100757.05;1580421;90;21587;-81
2021/05/07 00:57:55;;;;;;;17.35;9.03;;;;;;;12.23;100.00;100763.78;1581879;90;21095;-81
2021/05/07 01:00:23;;;;;;;18.90;8.60;;;;;;;12.23;100.00;100765.68;1586772;90;21945;-81
2021/05/07 01:02:50;;;;;;;18.48;8.20;;;;;;;12.23;100.00;100760.28;1587378;90;21287;-81
2021/05/07 01:05:16;;;;;;;19.37;8.10;;;;;;;12.24;100.00;100753.27;1592727;88;21274;-81
2021/05/07 01:07:42;;;;;;;18.45;8.28;;;;;;;12.22;100.00;100750.56;1600030;89;21697;-81
2021/05/07 01:10:12;;;;;;;17.32;8.60;;;;;;;12.22;100.00;100750.56;1600082;89;21194;-81
2021/05/07 01:12:40;;;;;;;16.60;8.58;;;;;;;12.14;100.00;100745.67;1600034;89;21643;-81
2021/05/07 01:15:19;;;;;;;19.30;8.48;;;;;;;12.02;100.00;100755.36;1599795;89;22567;-81
2021/05/07 01:17:52;;;;;;;16.93;8.35;;;;;;;11.93;100.00;100752.36;1622224;87;21633;-81
2021/05/07 01:20:31;;;;;;;14.05;7.67;;;;;;;11.91;100.00;100748.30;1536037;92;21657;-81
2021/05/07 01:23:04;;;;;;;17.77;8.45;;;;;;;11.81;100.00;100751.20;1511836;93;21672;-81
2021/05/07 01:25:37;;;;;;;23.18;9.58;;;;;;;11.78;100.00;100763.08;1522471;94;21314;-81
2021/05/07 01:28:06;;;;;;;15.78;8.35;;;;;;;11.73;100.00;100763.05;1516758;93;21258;-81
2021/05/07 01:30:39;;;;;;;19.85;9.90;;;;;;;11.63;100.00;100765.17;1522432;94;21218;-81
2021/05/07 01:33:05;;;;;;;18.77;8.93;;;;;;;11.56;100.00;100767.30;1522514;94;21139;-81
2021/05/07 01:35:35;;;;;;;15.35;8.73;;;;;;;11.48;100.00;100769.95;1510502;94;21100;-81
2021/05/07 01:38:08;;;;;;;23.67;9.28;;;;;;;11.43;100.00;100772.61;1506870;94;21314;-82
2021/05/07 01:40:39;;;;;;;18.77;8.48;;;;;;;11.35;100.00;100773.09;1507014;94;21228;-81
2021/05/07 01:43:06;;;;;;;20.05;8.95;;;;;;;11.25;100.00;100786.53;1440690;99;21246;-81
2021/05/07 01:45:35;;;;;;;18.77;9.35;;;;;;;11.09;100.00;100782.38;1434882;99;21318;-81
2021/05/07 01:48:03;;;;;;;17.77;9.48;;;;;;;11.05;100.00;100785.30;1433834;100;21675;-81
2021/05/07 01:50:32;;;;;;;24.15;9.50;;;;;;;11.00;100.00;100791.19;1433527;100;21226;-81
2021/05/07 01:52:59;;;;;;;17.77;9.20;;;;;;;10.89;100.00;100788.42;1433606;100;21281;-81
2021/05/07 01:55:32;;;;;;;18.07;8.28;;;;;;;10.86;100.00;100790.82;1450920;98;21258;-81
2021/05/07 01:58:00;;;;;;;19.45;9.15;;;;;;;10.81;100.00;100799.67;1433761;100;21258;-82
2021/05/07 02:00:28;;;;;;;16.82;8.48;;;;;;;10.72;100.00;100807.95;1472666;96;21313;-81
2021/05/07 02:02:56;;;;;;;21.12;9.85;;;;;;;10.74;100.00;100796.92;1477882;97;21353;-82
2021/05/07 02:05:25;;;;;;;21.10;9.28;;;;;;;10.61;100.00;100807.02;1477795;97;21369;-81
2021/05/07 02:07:51;;;;;;;18.75;9.68;;;;;;;10.55;100.00;100808.58;1477918;97;21206;-81
2021/05/07 02:10:24;;;;;;;23.62;10.13;;;;;;;10.50;100.00;100817.44;1477705;97;21238;-81
2021/05/07 02:12:54;;;;;;;24.63;11.20;;;;;;;10.50;100.00;100812.05;1477906;97;21222;-81
2021/05/07 02:15:23;;;;;;;21.35;10.03;;;;;;;10.45;100.00;100814.69;1457126;98;21233;-81
2021/05/07 02:17:50;;;;;;;22.13;10.70;;;;;;;10.41;100.00;100817.59;1467064;97;21314;-81
2021/05/07 02:20:19;;;;;;;22.40;11.08;;;;;;;10.37;100.00;100813.78;1465085;96;21262;-82
2021/05/07 02:22:47;;;;;;;23.32;11.12;;;;;;;10.32;100.00;100816.41;1461946;98;21177;-82
2021/05/07 02:25:18;;;;;;;23.80;10.32;;;;;;;10.33;100.00;100819.41;1461964;97;21670;-81
2021/05/07 02:27:49;;;;;;;23.20;11.10;;;;;;;10.28;100.00;100817.45;1462005;96;22073;-81
2021/05/07 02:30:20;;;;;;;29.42;9.73;;;;;;;10.25;100.00;100819.28;1461918;97;21746;-81
2021/05/07 02:32:46;;;;;;;20.52;10.60;;;;;;;10.24;100.00;100825.74;1416137;101;21296;-82
2021/05/07 02:35:13;;;;;;;22.13;10.43;;;;;;;10.18;100.00;100834.29;1426512;99;21058;-81
2021/05/07 02:37:40;;;;;;;21.45;10.60;;;;;;;10.13;100.00;100839.61;1431251;100;21214;-81
2021/05/07 02:40:08;;;;;;;23.22;10.53;;;;;;;10.10;100.00;100842.00;1443206;98;21218;-82
2021/05/07 02:42:34;;;;;;;23.55;10.65;;;;;;;10.12;100.00;100850.64;1454416;97;21209;-82
2021/05/07 02:45:04;;;;;;;19.75;10.13;;;;;;;10.14;100.00;100855.23;1454589;98;21341;-82
2021/05/07 02:47:32;;;;;;;21.85;9.68;;;;;;;10.13;100.00;100859.00;1454563;98;21262;-82
2021/05/07 02:49:59;;;;;;;22.75;10.58;;;;;;;10.11;100.00;100865.96;1462330;97;21181;-82
2021/05/07 02:52:26;;;;;;;19.70;9.73;;;;;;;10.08;100.00;100879.12;1461807;96;21289;-81
2021/05/07 02:54:52;;;;;;;26.07;10.25;;;;;;;10.07;100.00;100882.89;1462192;98;21223;-82
2021/05/07 02:57:18;;;;;;;21.90;9.90;;;;;;;10.14;100.00;100887.01;1458950;98;21397;-82
2021/05/07 02:59:44;;;;;;;22.73;10.95;;;;;;;10.27;100.00;100893.95;1461712;97;21257;-82
2021/05/07 03:02:10;;;;;;;23.50;10.95;;;;;;;10.45;100.00;100894.17;1466813;97;21050;-82
2021/05/07 03:04:36;;;;;;;23.32;10.20;;;;;;;10.56;100.00;100895.92;1466759;97;22054;-81
2021/05/07 03:07:02;;;;;;;19.77;10.10;;;;;;;10.66;100.00;100904.65;1466635;97;21058;-81
2021/05/07 03:09:28;;;;;;;30.88;10.95;;;;;;;10.63;100.00;100900.57;1466835;97;21305;-82
2021/05/07 03:11:56;;;;;;;21.55;10.18;;;;;;;10.75;100.00;100904.48;1496473;91;21003;-82
2021/05/07 03:14:24;;;;;;;21.27;10.25;;;;;;;10.79;100.00;100905.58;1533389;92;21224;-82
2021/05/07 03:16:50;;;;;;;19.90;10.48;;;;;;;10.86;100.00;100909.45;1547555;92;21238;-82
2021/05/07 03:19:16;;;;;;;22.40;10.78;;;;;;;10.99;100.00;100912.27;1549585;92;21668;-82
2021/05/07 03:21:42;;;;;;;22.02;9.45;;;;;;;11.06;100.00;100912.86;1549775;92;21210;-81
2021/05/07 03:24:09;;;;;;;19.98;9.23;;;;;;;11.23;100.00;100907.36;1550014;92;21611;-82
2021/05/07 03:26:35;;;;;;;20.82;9.25;;;;;;;11.40;100.00;100912.10;1549876;92;21327;-82
2021/05/07 03:29:01;;;;;;;20.12;9.85;;;;;;;11.57;100.00;100918.72;1552592;90;21216;-82
2021/05/07 03:31:26;;;;;;;23.90;10.90;;;;;;;11.75;100.00;100926.41;1561906;90;20978;-82
2021/05/07 03:33:52;;;;;;;21.93;10.50;;;;;;;11.73;100.00;100924.50;1561792;90;21101;-82
2021/05/07 03:36:18;;;;;;;23.47;10.45;;;;;;;11.87;100.00;100930.84;1561938;90;20994;-82
2021/05/07 03:38:44;;;;;;;21.95;11.25;;;;;;;12.02;100.00;100941.20;1562143;90;21395;-81
2021/05/07 03:41:10;;;;;;;25.90;12.35;;;;;;;12.17;100.00;100943.72;1561070;90;21227;-82
2021/05/07 03:43:36;;;;;;;29.90;12.33;;;;;;;12.27;100.00;100948.65;1561967;90;20970;-82
2021/05/07 03:46:03;;;;;;;27.65;11.63;;;;;;;12.42;100.00;100949.27;1569924;88;21632;-81
2021/05/07 03:48:29;;;;;;;33.18;12.00;;;;;;;12.61;100.00;100956.91;1606449;88;21224;-81
2021/05/07 03:51:00;;;;;;;27.20;13.53;;;;;;;12.82;100.00;100957.79;1600618;89;21001;-82
2021/05/07 03:53:26;;;;;;;25.37;12.50;;;;;;;12.96;100.00;100946.20;1600451;89;21251;-82
2021/05/07 03:55:55;;;;;;;26.75;13.25;;;;;;;13.27;100.00;100948.20;1600383;89;21227;-82
2021/05/07 03:58:21;;;;;;;26.73;12.80;;;;;;;13.72;100.00;100948.74;1600510;89;21193;-82
2021/05/07 04:00:47;;;;;;;23.95;12.55;;;;;;;14.33;100.00;100953.80;1606121;88;21800;-82
2021/05/07 04:03:12;;;;;;;23.32;11.90;;;;;;;14.81;100.00;100949.55;1607492;88;21093;-82
2021/05/07 04:05:39;;;;;;;22.65;11.60;;;;;;;15.47;100.00;100946.13;1607496;88;21608;-82
2021/05/07 04:08:12;;;;;;;20.88;10.65;;;;;;;16.11;100.00;100939.59;1607438;88;21763;-82
2021/05/07 04:10:43;;;;;;;21.73;11.05;;;;;;;17.28;100.00;100947.37;1607109;88;21179;-82
2021/05/07 04:15:31;;;;;;;22.02;10.60;;;;;;;17.92;100.00;100945.78;1607594;88;20973;-82
2021/05/07 04:17:57;;;;;;;19.42;9.30;;;;;;;17.28;100.00;100945.45;1607580;87;21860;-82
2021/05/07 04:20:23;;;;;;;12.80;7.92;;;;;;;16.46;100.00;100955.25;1607409;88;21256;-83
2021/05/07 04:22:49;;;;;;;15.75;8.73;;;;;;;16.55;100.00;100952.94;1607363;88;21741;-83
2021/05/07 04:25:15;;;;;;;15.10;7.75;;;;;;;16.52;100.00;100956.80;1607425;88;20997;-82
2021/05/07 04:27:41;;;;;;;15.45;8.65;;;;;;;15.73;100.00;100954.91;1607427;88;21172;-82
2021/05/07 04:30:09;;;;;;;13.45;8.25;;;;;;;14.93;100.00;100961.42;1607472;88;21196;-83
2021/05/07 04:32:35;;;;;;;13.98;8.30;;;;;;;15.36;100.00;100946.22;1607432;88;21179;-82
2021/05/07 04:35:01;;;;;;;12.98;8.18;;;;;;;16.10;100.00;100946.94;1604398;88;21144;-82
2021/05/07 04:37:26;;;;;;;12.78;7.75;;;;;;;16.48;100.00;100947.06;1607416;88;21244;-83
2021/05/07 04:39:53;;;;;;;10.50;7.03;;;;;;;16.76;100.00;100936.38;1607516;88;20974;-83
2021/05/07 04:42:19;;;;;;;12.43;7.20;;;;;;;18.70;100.00;100935.77;1607442;88;21100;-83
2021/05/07 04:44:44;;;;;;;11.25;7.35;;;;;;;18.54;91.17;100946.20;1607497;88;21183;-83
2021/05/07 04:47:10;;;;;;;11.08;7.20;;;;;;;18.07;93.00;100937.88;1607480;88;20973;-83
2021/05/07 04:49:37;;;;;;;10.72;7.03;;;;;;;18.89;89.27;100945.23;1607502;88;21179;-83
2021/05/07 04:52:04;;;;;;;9.28;6.72;;;;;;;19.22;86.10;100947.20;1607441;88;21224;-84
2021/05/07 04:54:33;;;;;;;12.30;6.95;;;;;;;21.14;81.13;100941.98;1607398;88;21211;-84
2021/05/07 04:56:58;;;;;;;9.93;6.30;;;;;;;22.26;58.63;100944.28;1607289;88;21227;-84
2021/05/07 04:59:24;;;;;;;10.35;7.03;;;;;;;23.95;57.36;100950.83;1606422;87;21242;-84
2021/05/07 05:01:50;;;;;;;13.35;6.80;;;;;;;24.51;53.54;100956.41;1596407;89;20998;-85
2021/05/07 05:04:16;;;;;;;11.03;6.80;;;;;;;25.19;48.89;100960.66;1596411;88;21088;-84
2021/05/07 05:06:42;;;;;;;9.15;6.85;;;;;;;26.38;45.35;100965.38;1596622;89;21271;-84
2021/05/07 05:09:08;;;;;;;8.83;6.28;;;;;;;27.26;48.07;100965.01;1596579;89;21229;-84
2021/05/07 05:11:34;;;;;;;8.38;6.62;;;;;;;27.49;40.83;100972.58;1596503;89;21097;-85
2021/05/07 05:14:00;;;;;;;8.98;6.70;;;;;;;26.81;40.78;100965.02;1596548;88;21014;-85
2021/05/07 05:16:26;;;;;;;8.93;6.47;;;;;;;28.15;42.84;100969.23;1595827;89;21108;-86
2021/05/07 05:18:52;;;;;;;12.13;7.08;;;;;;;28.73;42.95;100967.00;1592037;89;21230;-85
2021/05/07 05:21:18;;;;;;;8.10;6.22;;;;;;;29.41;41.60;100963.75;1594985;89;20982;-86
2021/05/07 05:23:46;;;;;;;9.48;6.40;;;;;;;29.45;39.26;100962.39;1595942;89;21653;-86
2021/05/07 05:26:12;;;;;;;7.70;6.30;;;;;;;30.09;39.74;100964.44;1597488;88;21189;-86
2021/05/07 05:28:38;;;;;;;7.58;5.75;;;;;;;31.13;37.44;100967.91;1596704;89;21014;-86
2021/05/07 05:31:05;;;;;;;12.03;6.60;;;;;;;30.66;36.35;100972.42;1597031;88;21387;-85
2021/05/07 05:33:31;;;;;;;10.30;6.65;;;;;;;31.65;35.22;100971.87;1596379;89;21181;-86
2021/05/07 05:35:57;;;;;;;8.28;5.53;;;;;;;32.26;33.99;100972.73;1597503;87;21596;-85
2021/05/07 05:38:23;;;;;;;8.83;6.35;;;;;;;28.25;34.58;100976.34;1622128;87;20982;-86
2021/05/07 05:40:49;;;;;;;10.65;6.90;;;;;;;30.10;36.12;100974.37;1622166;87;21018;-86
2021/05/07 05:43:15;;;;;;;9.18;5.65;;;;;;;30.71;35.53;100974.05;1622158;87;21249;-84
2021/05/07 05:45:41;;;;;;;7.97;6.05;;;;;;;31.61;33.88;100971.07;1625442;87;21168;-84
2021/05/07 05:48:12;;;;;;;9.78;4.92;;;;;;;31.91;31.35;100973.53;1622211;87;21511;-83
2021/05/07 05:50:42;;;;;;;7.50;5.22;;;;;;;32.74;32.50;100976.49;1622248;87;21149;-84
2021/05/07 05:53:09;;;;;;;7.95;5.53;;;;;;;32.23;30.85;100979.72;1604044;88;21185;-84
2021/05/07 05:55:37;;;;;;;8.78;5.92;;;;;;;32.04;30.39;100991.48;1622298;87;21346;-84
2021/05/07 05:58:03;;;;;;;10.48;6.55;;;;;;;32.30;32.52;100990.89;1622172;87;21057;-84
2021/05/07 06:00:29;;;;;;;6.92;5.22;;;;;;;32.92;30.99;100991.80;1624504;87;21627;-83
2021/05/07 06:02:56;;;;;;;9.53;5.33;;;;;;;32.12;29.56;100988.08;1624983;87;21561;-83
2021/05/07 06:05:22;;;;;;;6.28;5.10;;;;;;;32.43;30.37;100995.45;1624995;87;21032;-83
2021/05/07 06:07:48;;;;;;;8.50;5.40;;;;;;;30.74;29.76;100994.94;1624965;87;21167;-83
2021/05/07 06:10:16;;;;;;;6.97;5.00;;;;;;;31.41;30.52;100996.52;1625093;87;21089;-83
2021/05/07 06:12:45;;;;;;;11.35;5.92;;;;;;;31.97;31.36;101000.42;1625082;87;21086;-83
2021/05/07 06:15:12;;;;;;;10.90;6.03;;;;;;;32.11;31.64;101003.22;1625069;87;21602;-82
2021/05/07 06:17:39;;;;;;;8.40;5.90;;;;;;;32.31;30.64;101001.63;1625111;87;21200;-80
2021/05/07 06:20:07;;;;;;;11.60;6.37;;;;;;;32.85;29.78;101000.78;1625100;87;21229;-79
2021/05/07 06:22:37;;;;;;;8.08;5.60;;;;;;;31.58;28.85;101003.31;1600265;89;21179;-80
2021/05/07 06:25:08;;;;;;;8.20;6.40;;;;;;;32.09;29.14;101004.21;1600247;89;21211;-80
2021/05/07 06:27:34;;;;;;;8.20;5.67;;;;;;;33.43;30.01;100995.99;1553127;91;21229;-81
2021/05/07 06:30:00;;;;;;;8.63;5.25;;;;;;;34.55;26.61;101003.03;1553522;91;21209;-80
2021/05/07 06:32:26;;;;;;;9.88;5.28;;;;;;;33.00;26.12;101004.58;1553504;91;21579;-80
2021/05/07 06:34:52;;;;;;;7.25;5.00;;;;;;;33.42;27.91;100997.81;1553188;91;21193;-81
2021/05/07 06:37:18;;;;;;;7.95;5.35;;;;;;;34.23;27.31;100992.89;1553361;91;21666;-81
2021/05/07 06:39:44;;;;;;;8.23;4.53;;;;;;;35.70;26.29;100982.84;1553473;91;20971;-81
2021/05/07 06:42:10;;;;;;;11.08;5.20;;;;;;;36.00;24.98;100987.56;1553542;91;21190;-81
2021/05/07 06:44:37;;;;;;;7.12;4.35;;;;;;;36.76;24.05;100991.30;1553402;91;21225;-81
2021/05/07 06:47:03;;;;;;;9.65;4.55;;;;;;;36.62;22.35;100996.56;1553084;91;21248;-81
2021/05/07 06:49:29;;;;;;;10.65;5.28;;;;;;;36.46;20.51;100990.22;1549991;91;21051;-81
2021/05/07 06:51:55;;;;;;;7.53;3.95;;;;;;;36.95;20.65;100994.73;1553438;91;21062;-81
2021/05/07 06:54:26;;;;;;;5.85;4.90;;;;;;;35.21;20.88;100991.52;1550908;91;21204;-81
2021/05/07 06:56:49;;;;;;;9.73;5.97;;;;;;;36.59;21.66;100991.22;1547653;91;21240;-80
2021/05/07 06:59:16;;;;;;;8.45;5.25;;;;;;;37.43;21.59;100996.14;1550642;92;21131;-80
2021/05/07 07:01:42;;;;;;;8.23;5.50;;;;;;;37.19;21.23;100998.27;1523893;92;21211;-80
2021/05/07 07:04:08;;;;;;;6.90;4.50;;;;;;;35.96;19.72;100996.66;1556717;92;21674;-80
2021/05/07 07:06:34;;;;;;;7.78;5.05;;;;;;;33.32;23.05;101004.23;1540927;92;20984;-80
2021/05/07 07:09:00;;;;;;;13.28;6.67;;;;;;;34.46;23.17;101008.30;1529947;93;21580;-79
2021/05/07 07:11:26;;;;;;;16.60;7.42;;;;;;;35.90;22.75;101013.18;1529849;92;21017;-80
2021/05/07 07:13:52;;;;;;;11.53;6.75;;;;;;;35.79;21.74;101005.53;1529912;93;21096;-80
2021/05/07 07:16:18;;;;;;;16.42;6.92;;;;;;;36.38;21.18;101005.60;1529869;93;21573;-80
2021/05/07 07:18:44;;;;;;;15.00;7.10;;;;;;;36.40;20.12;101004.58;1510799;93;21189;-80
2021/05/07 07:21:10;;;;;;;15.63;6.40;;;;;;;38.13;20.50;100990.72;1530061;93;21256;-79
2021/05/07 07:23:37;;;;;;;12.28;6.00;;;;;;;37.73;20.35;100995.69;1529909;93;21016;-80
2021/05/07 07:26:08;;;;;;;11.15;5.10;;;;;;;36.98;18.48;101005.73;1529885;93;21207;-80
2021/05/07 07:28:37;;;;;;;12.77;4.63;;;;;;;37.04;20.01;101006.83;1529908;93;21287;-79
2021/05/07 07:31:05;;;;;;;11.20;5.25;;;;;;;37.59;19.74;101007.27;1584528;87;21189;-79
2021/05/07 07:33:32;;;;;;;12.30;4.47;;;;;;;37.87;17.77;101014.27;1627037;87;21345;-79
2021/05/07 07:35:59;;;;;;;6.17;4.12;;;;;;;38.28;18.20;101008.66;1626351;87;21107;-80
2021/05/07 07:38:25;;;;;;;6.53;3.90;;;;;;;37.37;17.34;101016.16;1626554;87;21260;-82
2021/05/07 07:40:52;;;;;;;4.65;3.40;;;;;;;37.19;18.89;101019.98;1601097;87;21197;-80
2021/05/07 07:43:20;;;;;;;4.90;3.37;;;;;;;38.52;17.15;101013.48;1626427;87;21530;-80
2021/05/07 07:45:47;;;;;;;8.40;3.85;;;;;;;38.82;17.11;101010.21;1626499;87;21232;-80
2021/05/07 07:48:13;;;;;;;6.22;4.05;;;;;;;39.04;17.23;101016.07;1626205;87;21593;-80
2021/05/07 07:50:40;;;;;;;8.50;3.22;;;;;;;38.70;17.99;101009.55;1626375;87;21122;-80
2021/05/07 07:53:08;;;;;;;8.73;2.92;;;;;;;38.69;17.77;101017.05;1626660;87;21189;-80
2021/05/07 07:55:34;;;;;;;4.12;2.83;;;;;;;38.05;15.82;101020.89;1626968;87;21164;-81
2021/05/07 07:58:01;;;;;;;2.83;2.22;;;;;;;38.13;16.42;101013.23;1626328;87;21698;-81
2021/05/07 08:00:28;;;;;;;3.33;2.25;;;;;;;38.42;15.17;101014.54;1622759;87;21108;-81
2021/05/07 08:02:54;;;;;;;3.50;2.35;;;;;;;37.56;14.05;101011.74;1626413;87;21189;-81
2021/05/07 08:05:20;;;;;;;6.28;2.50;;;;;;;36.56;15.17;101022.98;1627692;87;21417;-81
2021/05/07 08:07:46;;;;;;;6.08;3.12;;;;;;;35.25;15.51;101021.68;1626652;87;21216;-81
2021/05/07 08:10:15;;;;;;;4.10;2.50;;;;;;;34.88;15.28;101021.08;1626499;86;21256;-82
2021/05/07 08:12:43;;;;;;;4.92;2.35;;;;;;;35.45;17.43;101011.23;1626287;87;21101;-81
2021/05/07 08:15:10;;;;;;;7.30;2.27;;;;;;;38.32;13.44;101009.34;1626742;87;21200;-81
2021/05/07 08:17:36;;;;;;;5.05;2.55;;;;;;;38.68;13.57;101007.00;1626287;87;21210;-83
2021/05/07 08:20:06;;;;;;;3.85;2.50;;;;;;;39.43;13.28;101012.72;1626340;87;21201;-82
2021/05/07 08:22:32;;;;;;;3.77;2.12;;;;;;;37.98;13.75;101010.61;1569506;90;21191;-82
2021/05/07 08:24:58;;;;;;;5.67;2.35;;;;;;;37.17;14.76;101018.98;1569328;89;21211;-81
2021/05/07 08:27:25;;;;;;;4.80;2.20;;;;;;;38.15;14.44;101013.59;1569363;91;21620;-81
2021/05/07 08:29:51;;;;;;;4.08;2.58;;;;;;;38.79;13.27;101003.27;1569447;91;21175;-82
2021/05/07 08:32:17;;;;;;;4.92;1.80;;;;;;;36.37;16.00;101014.64;1569091;91;21392;-82
2021/05/07 08:34:44;;;;;;;5.28;2.17;;;;;;;35.44;14.86;101012.42;1568983;91;21292;-81
2021/05/07 08:37:14;;;;;;;4.92;2.05;;;;;;;35.62;15.77;101011.62;1569366;91;21219;-81
2021/05/07 08:39:41;;;;;;;2.83;1.70;;;;;;;34.64;16.17;101017.33;1569405;90;21251;-81
2021/05/07 08:42:10;;;;;;;4.58;2.10;;;;;;;34.76;15.73;101017.41;1569584;90;21101;-81
2021/05/07 08:44:37;;;;;;;4.50;2.10;;;;;;;34.35;15.77;100992.98;1569466;91;21196;-82
2021/05/07 08:47:03;;;;;;;2.33;1.52;;;;;;;32.10;16.70;101013.59;1569308;91;21865;-82
2021/05/07 08:49:30;;;;;;;3.20;2.00;;;;;;;31.87;19.14;101016.71;1569265;91;21557;-81
2021/05/07 08:51:57;;;;;;;6.22;2.00;;;;;;;35.10;16.46;101015.28;1569244;91;21252;-81
2021/05/07 08:54:27;;;;;;;3.75;2.08;;;;;;;34.71;16.14;101015.88;1569288;91;21251;-81
2021/05/07 08:56:52;;;;;;;3.90;1.60;;;;;;;34.03;16.48;101011.41;1569515;90;21220;-81
2021/05/07 08:59:18;;;;;;;3.55;1.75;;;;;;;32.74;16.69;101016.18;1569185;91;21401;-81
2021/05/07 09:01:51;;;;;;;6.33;1.75;;;;;;;32.74;17.96;101018.97;1570205;88;21925;-83
2021/05/07 09:04:20;;;;;;;5.25;1.90;;;;;;;32.33;17.29;101023.56;1569511;91;21588;-83
2021/05/07 09:06:51;;;;;;;2.20;1.47;;;;;;;31.60;17.28;101017.66;1569296;91;21526;-81
2021/05/07 09:09:28;;;;;;;4.55;1.40;;;;;;;32.49;17.71;101027.36;1569284;91;21180;-81
2021/05/07 09:11:57;;;;;;;2.83;1.42;;;;;;;33.32;16.91;101028.77;1569449;91;21277;-81
2021/05/07 09:14:25;;;;;;;3.02;1.40;;;;;;;33.77;16.54;101023.40;1569231;91;21293;-81
2021/05/07 09:17:01;;;;;;;3.87;1.82;;;;;;;34.57;16.13;101023.02;1569398;91;21184;-82
2021/05/07 09:19:30;;;;;;;3.52;1.70;;;;;;;34.73;16.11;101012.65;1616221;86;21605;-81
2021/05/07 09:21:58;;;;;;;3.85;2.10;;;;;;;35.65;14.75;101002.36;1527939;93;21222;-82
2021/05/07 09:24:38;;;;;;;3.70;1.30;;;;;;;32.61;17.52;101016.39;1540802;91;21430;-81
2021/05/07 09:27:05;;;;;;;3.92;1.52;;;;;;;32.53;17.61;101017.80;1492629;94;21772;-83
2021/05/07 09:29:35;;;;;;;1.98;1.40;;;;;;;32.46;17.34;101013.61;1492882;94;21211;-83
2021/05/07 09:32:01;;;;;;;4.40;1.82;;;;;;;32.39;17.46;101019.17;1492821;94;21262;-83
2021/05/07 09:34:27;;;;;;;2.65;1.52;;;;;;;32.67;16.57;101025.95;1492820;94;21233;-83
2021/05/07 09:36:53;;;;;;;3.45;1.80;;;;;;;30.96;17.78;101012.58;1492840;94;21237;-83
2021/05/07 09:39:22;;;;;;;3.70;1.30;;;;;;;30.21;17.48;101020.94;1492734;94;21042;-81
2021/05/07 09:41:51;;;;;;;1.98;1.27;;;;;;;31.16;18.56;101014.47;1491778;94;21259;-82
2021/05/07 09:44:24;;;;;;;4.97;1.50;;;;;;;32.35;18.18;101012.78;1492902;94;21733;-81
2021/05/07 09:46:52;;;;;;;4.10;1.40;;;;;;;31.53;19.12;101017.62;1492887;94;21157;-81
2021/05/07 09:49:30;;;;;;;5.55;2.17;;;;;;;32.34;17.98;101019.57;1492874;94;21705;-81
2021/05/07 09:51:58;;;;;;;5.72;1.98;;;;;;;32.68;17.44;101024.16;1492914;94;21760;-82
2021/05/07 09:54:25;;;;;;;4.78;1.95;;;;;;;31.64;18.71;101026.02;1492837;94;21220;-81
2021/05/07 09:59:22;;;;;;;7.83;3.10;;;;;;;31.68;18.52;101047.14;1469545;97;21213;-83
2021/05/07 10:01:49;;;;;;;9.60;2.80;;;;;;;31.58;18.15;101045.11;1471859;97;21973;-83
2021/05/07 10:04:16;;;;;;;6.62;2.80;;;;;;;29.72;19.26;101040.89;1471753;95;21299;-85
2021/05/07 10:06:43;;;;;;;11.85;3.33;;;;;;;28.57;21.55;101049.58;1449616;98;21230;-85
2021/05/07 10:09:13;;;;;;;6.45;3.40;;;;;;;29.10;20.56;101051.00;1449747;99;21282;-83
2021/05/07 10:11:43;;;;;;;5.90;3.40;;;;;;;29.64;20.29;101048.34;1451950;97;21279;-83
2021/05/07 10:14:15;;;;;;;9.40;4.87;;;;;;;28.70;22.21;101050.97;1473244;97;21242;-85
2021/05/07 10:16:44;;;;;;;8.93;4.05;;;;;;;28.97;21.11;101051.79;1501104;95;21274;-85
2021/05/07 10:19:14;;;;;;;9.63;3.85;;;;;;;28.87;21.32;101050.23;1501358;95;21274;-85
2021/05/07 10:21:45;;;;;;;7.95;4.37;;;;;;;28.80;21.72;101053.71;1501466;94;21250;-85
2021/05/07 10:24:19;;;;;;;8.85;4.37;;;;;;;28.90;21.29;101044.73;1526444;92;21203;-85
2021/05/07 10:26:54;;;;;;;17.40;7.95;;;;;;;28.48;22.07;101044.29;1509436;95;21985;-85
2021/05/07 10:29:27;;;;;;;17.07;7.28;;;;;;;29.02;21.28;101045.69;1491520;95;21510;-85
2021/05/07 10:31:59;;;;;;;15.38;7.00;;;;;;;28.86;22.56;101048.05;1509459;95;21235;-85
2021/05/07 10:34:28;;;;;;;15.18;6.42;;;;;;;28.76;22.11;101045.91;1509740;95;21192;-85
2021/05/07 10:37:01;;;;;;;16.00;7.28;;;;;;;28.75;22.34;101047.88;1509311;95;21235;-85
2021/05/07 10:39:32;;;;;;;;;;;;;;;28.43;22.79;101041.82;1508986;95;21244;-85
2021/05/07 10:42:02;;;;;;;16.70;7.72;;;;;;;28.46;21.78;101040.28;1509562;95;20335;-84
2021/05/07 10:44:34;;;;;;;13.93;7.40;;;;;;;28.44;22.02;101030.97;1509408;95;21295;-85
2021/05/07 10:47:10;;;;;;;20.12;7.35;;;;;;;27.93;22.81;101024.29;1506647;95;21522;-85
2021/05/07 10:49:42;;;;;;;16.52;7.15;;;;;;;27.78;22.87;101024.61;1509399;95;21327;-86
2021/05/07 10:52:11;;;;;;;16.30;7.50;;;;;;;27.00;23.73;100996.05;1523138;94;21815;-85
2021/05/07 10:54:46;;;;;;;15.60;7.92;;;;;;;27.00;23.73;100996.05;1523039;94;21291;-85
2021/05/07 10:57:29;;;;;;;17.17;7.78;;;;;;;27.34;23.26;101017.97;1533877;93;21664;-84
2021/05/07 11:00:02;;;;;;;;;;;;;;;26.91;23.92;101007.34;1538888;93;21176;-84
2021/05/07 11:02:28;;;;;;;14.78;7.00;;;;;;;27.06;24.58;101012.61;1496020;93;20346;-85
2021/05/07 11:04:55;;;;;;;12.03;6.20;;;;;;;27.53;23.83;101010.81;1522582;93;21278;-85
2021/05/07 11:07:30;;;;;;;12.43;6.40;;;;;;;27.78;23.57;101015.47;1503023;93;21207;-87
2021/05/07 11:10:06;;;;;;;14.20;5.75;;;;;;;27.86;23.15;101013.09;1521740;93;21255;-86
2021/05/07 11:12:35;;;;;;;12.30;5.65;;;;;;;28.30;21.98;101012.08;1448391;99;21763;-85
2021/05/07 11:15:01;;;;;;;14.75;5.92;;;;;;;28.01;21.98;101013.55;1449069;98;21202;-84
2021/05/07 11:17:27;;;;;;;14.68;5.55;;;;;;;27.71;22.63;101013.93;1449038;98;21308;-84
2021/05/07 11:19:53;;;;;;;11.40;4.50;;;;;;;27.90;23.18;101004.84;1438829;99;21678;-84
2021/05/07 11:22:25;;;;;;;8.53;4.55;;;;;;;28.01;22.17;101001.09;1450698;97;21143;-83
2021/05/07 11:24:52;;;;;;;10.05;4.05;;;;;;;27.94;21.77;101002.33;1477208;95;21409;-86